sensor_id;sensor_type;location;lat;lon;timestamp;pressure;altitude;pressure_sealevel;temperature;humidity
61035;BME280;46916;40.564;-7.958;2022-07-12T00:00:42;97054.00;;;27.39;39.17
61035;BME280;46916;40.564;-7.958;2022-07-12T00:02:43;97054.00;;;27.39;39.12
61035;BME280;46916;40.564;-7.958;2022-07-12T00:04:43;97053.41;;;27.37;38.91
61035;BME280;46916;40.564;-7.958;2022-07-12T00:06:44;97056.03;;;27.32;39.31
61035;BME280;46916;40.564;-7.958;2022-07-12T00:08:45;97052.44;;;27.27;38.94
61035;BME280;46916;40.564;-7.958;2022-07-12T00:10:45;97053.75;;;27.24;38.72
61035;BME280;46916;40.564;-7.958;2022-07-12T00:12:46;97052.94;;;27.24;38.61
61035;BME280;46916;40.564;-7.958;2022-07-12T00:14:47;97061.09;;;27.29;37.99
61035;BME280;46916;40.564;-7.958;2022-07-12T00:16:48;97062.69;;;27.30;38.24
61035;BME280;46916;40.564;-7.958;2022-07-12T00:18:49;97056.50;;;27.29;38.64
61035;BME280;46916;40.564;-7.958;2022-07-12T00:20:50;97061.00;;;27.24;39.04
61035;BME280;46916;40.564;-7.958;2022-07-12T00:22:50;97061.41;;;27.15;39.55
61035;BME280;46916;40.564;-7.958;2022-07-12T00:24:51;97061.53;;;27.09;39.85
61035;BME280;46916;40.564;-7.958;2022-07-12T00:26:52;97057.38;;;27.01;39.96
61035;BME280;46916;40.564;-7.958;2022-07-12T00:28:53;97048.66;;;26.94;39.76
61035;BME280;46916;40.564;-7.958;2022-07-12T00:30:54;97056.97;;;26.92;39.69
61035;BME280;46916;40.564;-7.958;2022-07-12T00:32:54;97054.19;;;26.87;39.80
61035;BME280;46916;40.564;-7.958;2022-07-12T00:34:55;97052.59;;;26.86;39.61
61035;BME280;46916;40.564;-7.958;2022-07-12T00:36:56;97052.00;;;26.84;39.56
61035;BME280;46916;40.564;-7.958;2022-07-12T00:38:57;97047.34;;;26.80;39.48
61035;BME280;46916;40.564;-7.958;2022-07-12T00:40:57;97051.09;;;26.79;39.50
61035;BME280;46916;40.564;-7.958;2022-07-12T00:42:58;97052.38;;;26.76;39.49
61035;BME280;46916;40.564;-7.958;2022-07-12T00:44:59;97059.63;;;26.76;39.72
61035;BME280;46916;40.564;-7.958;2022-07-12T00:47:01;97052.97;;;26.78;39.08
61035;BME280;46916;40.564;-7.958;2022-07-12T00:49:02;97060.19;;;26.78;39.54
61035;BME280;46916;40.564;-7.958;2022-07-12T00:51:03;97062.41;;;26.81;39.16
61035;BME280;46916;40.564;-7.958;2022-07-12T00:53:03;97064.53;;;26.79;39.46
61035;BME280;46916;40.564;-7.958;2022-07-12T00:55:05;97055.34;;;26.75;39.22
61035;BME280;46916;40.564;-7.958;2022-07-12T00:57:06;97045.88;;;26.72;39.45
61035;BME280;46916;40.564;-7.958;2022-07-12T00:59:07;97049.03;;;26.69;39.50
61035;BME280;46916;40.564;-7.958;2022-07-12T01:01:08;97053.84;;;26.67;39.57
61035;BME280;46916;40.564;-7.958;2022-07-12T01:03:10;97049.28;;;26.67;39.32
61035;BME280;46916;40.564;-7.958;2022-07-12T01:05:10;97060.84;;;26.68;39.40
61035;BME280;46916;40.564;-7.958;2022-07-12T01:07:12;97047.16;;;26.70;39.39
61035;BME280;46916;40.564;-7.958;2022-07-12T01:09:14;97053.38;;;26.70;38.97
61035;BME280;46916;40.564;-7.958;2022-07-12T01:11:15;97065.75;;;26.71;39.49
61035;BME280;46916;40.564;-7.958;2022-07-12T01:13:16;97067.03;;;26.68;39.37
61035;BME280;46916;40.564;-7.958;2022-07-12T01:15:18;97064.00;;;26.65;39.32
61035;BME280;46916;40.564;-7.958;2022-07-12T01:17:22;97070.91;;;26.61;39.04
61035;BME280;46916;40.564;-7.958;2022-07-12T01:19:23;97073.03;;;26.59;39.38
61035;BME280;46916;40.564;-7.958;2022-07-12T01:21:26;97081.66;;;26.61;39.06
61035;BME280;46916;40.564;-7.958;2022-07-12T01:23:28;97086.22;;;26.60;38.98
61035;BME280;46916;40.564;-7.958;2022-07-12T01:25:29;97088.97;;;26.65;37.84
61035;BME280;46916;40.564;-7.958;2022-07-12T01:27:30;97098.91;;;26.65;38.07
61035;BME280;46916;40.564;-7.958;2022-07-12T01:29:31;97108.63;;;26.66;37.89
61035;BME280;46916;40.564;-7.958;2022-07-12T01:31:34;97109.06;;;26.75;37.99
61035;BME280;46916;40.564;-7.958;2022-07-12T01:33:35;97097.59;;;26.79;38.06
61035;BME280;46916;40.564;-7.958;2022-07-12T01:35:37;97104.84;;;26.79;37.73
61035;BME280;46916;40.564;-7.958;2022-07-12T01:37:40;97113.69;;;26.79;37.96
61035;BME280;46916;40.564;-7.958;2022-07-12T01:39:43;97119.28;;;26.78;37.59
61035;BME280;46916;40.564;-7.958;2022-07-12T01:41:44;97116.59;;;26.78;37.79
61035;BME280;46916;40.564;-7.958;2022-07-12T01:43:44;97113.13;;;26.77;37.44
61035;BME280;46916;40.564;-7.958;2022-07-12T01:45:45;97111.00;;;26.79;37.47
61035;BME280;46916;40.564;-7.958;2022-07-12T01:47:46;97114.50;;;26.80;37.96
61035;BME280;46916;40.564;-7.958;2022-07-12T01:49:47;97115.56;;;26.79;37.96
61035;BME280;46916;40.564;-7.958;2022-07-12T01:51:48;97119.00;;;26.74;38.00
61035;BME280;46916;40.564;-7.958;2022-07-12T01:53:48;97122.72;;;26.73;38.02
61035;BME280;46916;40.564;-7.958;2022-07-12T01:55:49;97118.16;;;26.74;38.51
61035;BME280;46916;40.564;-7.958;2022-07-12T01:57:50;97118.16;;;26.74;38.52
61035;BME280;46916;40.564;-7.958;2022-07-12T01:59:52;97114.44;;;26.75;38.60
61035;BME280;46916;40.564;-7.958;2022-07-12T02:01:54;97119.22;;;26.73;38.90
61035;BME280;46916;40.564;-7.958;2022-07-12T02:03:54;97116.53;;;26.73;39.12
61035;BME280;46916;40.564;-7.958;2022-07-12T02:05:55;97117.00;;;26.70;39.50
61035;BME280;46916;40.564;-7.958;2022-07-12T02:07:57;97113.50;;;26.69;39.89
61035;BME280;46916;40.564;-7.958;2022-07-12T02:09:58;97118.06;;;26.68;39.97
61035;BME280;46916;40.564;-7.958;2022-07-12T02:12:00;97118.66;;;26.71;39.87
61035;BME280;46916;40.564;-7.958;2022-07-12T02:14:01;97124.59;;;26.73;39.71
61035;BME280;46916;40.564;-7.958;2022-07-12T02:16:02;97122.47;;;26.75;39.25
61035;BME280;46916;40.564;-7.958;2022-07-12T02:18:03;97114.44;;;26.75;39.23
61035;BME280;46916;40.564;-7.958;2022-07-12T02:20:04;97115.47;;;26.74;39.35
61035;BME280;46916;40.564;-7.958;2022-07-12T02:22:05;97115.72;;;26.72;39.41
61035;BME280;46916;40.564;-7.958;2022-07-12T02:24:07;97114.09;;;26.71;38.59
61035;BME280;46916;40.564;-7.958;2022-07-12T02:26:08;97110.59;;;26.71;38.45
61035;BME280;46916;40.564;-7.958;2022-07-12T02:28:08;97104.97;;;26.72;38.65
61035;BME280;46916;40.564;-7.958;2022-07-12T02:30:10;97110.41;;;26.77;38.32
61035;BME280;46916;40.564;-7.958;2022-07-12T02:32:11;97113.22;;;26.82;37.99
61035;BME280;46916;40.564;-7.958;2022-07-12T02:34:12;97108.50;;;26.89;38.37
61035;BME280;46916;40.564;-7.958;2022-07-12T02:36:12;97105.41;;;26.98;38.29
61035;BME280;46916;40.564;-7.958;2022-07-12T02:38:13;97102.34;;;27.06;37.95
61035;BME280;46916;40.564;-7.958;2022-07-12T02:40:14;97106.53;;;27.13;38.35
61035;BME280;46916;40.564;-7.958;2022-07-12T02:42:33;97108.25;;;27.20;38.16
61035;BME280;46916;40.564;-7.958;2022-07-12T02:44:33;97113.72;;;27.25;38.26
61035;BME280;46916;40.564;-7.958;2022-07-12T02:46:34;97101.16;;;27.30;38.60
61035;BME280;46916;40.564;-7.958;2022-07-12T02:48:36;97103.09;;;27.35;38.51
61035;BME280;46916;40.564;-7.958;2022-07-12T02:50:37;97104.25;;;27.39;38.37
61035;BME280;46916;40.564;-7.958;2022-07-12T02:52:37;97101.66;;;27.44;38.33
61035;BME280;46916;40.564;-7.958;2022-07-12T02:54:38;97106.78;;;27.46;38.59
61035;BME280;46916;40.564;-7.958;2022-07-12T02:56:38;97104.09;;;27.46;38.32
61035;BME280;46916;40.564;-7.958;2022-07-12T02:58:39;97106.53;;;27.47;38.65
61035;BME280;46916;40.564;-7.958;2022-07-12T03:00:40;97107.38;;;27.48;38.76
61035;BME280;46916;40.564;-7.958;2022-07-12T03:02:42;97111.81;;;27.59;38.76
61035;BME280;46916;40.564;-7.958;2022-07-12T03:04:43;97110.78;;;27.60;38.70
61035;BME280;46916;40.564;-7.958;2022-07-12T03:06:43;97116.16;;;27.60;38.79
61035;BME280;46916;40.564;-7.958;2022-07-12T03:08:44;97112.16;;;27.62;38.91
61035;BME280;46916;40.564;-7.958;2022-07-12T03:10:45;97118.25;;;27.58;38.74
61035;BME280;46916;40.564;-7.958;2022-07-12T03:12:46;97114.75;;;27.57;39.10
61035;BME280;46916;40.564;-7.958;2022-07-12T03:14:46;97111.81;;;27.59;39.10
61035;BME280;46916;40.564;-7.958;2022-07-12T03:16:47;97114.75;;;27.57;39.11
61035;BME280;46916;40.564;-7.958;2022-07-12T03:18:48;97109.53;;;27.51;38.84
61035;BME280;46916;40.564;-7.958;2022-07-12T03:20:48;97112.16;;;27.46;39.41
61035;BME280;46916;40.564;-7.958;2022-07-12T03:22:49;97108.66;;;27.45;39.11
61035;BME280;46916;40.564;-7.958;2022-07-12T03:24:52;97106.44;;;27.42;39.36
61035;BME280;46916;40.564;-7.958;2022-07-12T03:26:52;97107.53;;;27.41;39.71
61035;BME280;46916;40.564;-7.958;2022-07-12T03:28:53;97106.78;;;27.46;39.63
61035;BME280;46916;40.564;-7.958;2022-07-12T03:30:54;97100.53;;;27.40;39.61
61035;BME280;46916;40.564;-7.958;2022-07-12T03:32:55;97100.19;;;27.36;39.89
61035;BME280;46916;40.564;-7.958;2022-07-12T03:34:55;97101.47;;;27.34;40.16
61035;BME280;46916;40.564;-7.958;2022-07-12T03:36:56;97103.63;;;27.32;39.91
61035;BME280;46916;40.564;-7.958;2022-07-12T03:38:57;97102.56;;;27.33;40.58
61035;BME280;46916;40.564;-7.958;2022-07-12T03:40:57;97106.53;;;27.30;40.07
61035;BME280;46916;40.564;-7.958;2022-07-12T03:42:58;97101.66;;;27.27;40.16
61035;BME280;46916;40.564;-7.958;2022-07-12T03:44:59;97101.56;;;27.22;40.00
61035;BME280;46916;40.564;-7.958;2022-07-12T03:46:59;97101.00;;;27.20;40.50
61035;BME280;46916;40.564;-7.958;2022-07-12T03:49:00;97098.25;;;27.15;40.74
61035;BME280;46916;40.564;-7.958;2022-07-12T03:51:01;97098.72;;;27.12;40.58
61035;BME280;46916;40.564;-7.958;2022-07-12T03:53:02;97096.84;;;27.12;40.67
61035;BME280;46916;40.564;-7.958;2022-07-12T03:55:02;97098.34;;;27.08;40.88
61035;BME280;46916;40.564;-7.958;2022-07-12T03:57:04;97097.91;;;27.11;41.01
61035;BME280;46916;40.564;-7.958;2022-07-12T03:59:13;97089.09;;;27.16;41.17
61035;BME280;46916;40.564;-7.958;2022-07-12T04:01:14;97086.66;;;27.14;41.24
61035;BME280;46916;40.564;-7.958;2022-07-12T04:03:15;97090.72;;;27.17;41.23
61035;BME280;46916;40.564;-7.958;2022-07-12T04:05:15;97096.44;;;27.21;40.96
61035;BME280;46916;40.564;-7.958;2022-07-12T04:07:17;97097.25;;;27.21;41.03
61035;BME280;46916;40.564;-7.958;2022-07-12T04:09:18;97088.94;;;27.23;40.51
61035;BME280;46916;40.564;-7.958;2022-07-12T04:11:18;97089.78;;;27.23;40.77
61035;BME280;46916;40.564;-7.958;2022-07-12T04:13:19;97083.47;;;27.17;40.51
61035;BME280;46916;40.564;-7.958;2022-07-12T04:15:20;97091.31;;;27.19;40.60
61035;BME280;46916;40.564;-7.958;2022-07-12T04:17:20;97086.91;;;27.13;40.95
61035;BME280;46916;40.564;-7.958;2022-07-12T04:19:21;97085.03;;;27.13;41.11
61035;BME280;46916;40.564;-7.958;2022-07-12T04:21:27;97092.28;;;27.13;40.76
61035;BME280;46916;40.564;-7.958;2022-07-12T04:23:28;97085.28;;;27.12;40.72
61035;BME280;46916;40.564;-7.958;2022-07-12T04:25:29;97091.06;;;27.21;41.01
61035;BME280;46916;40.564;-7.958;2022-07-12T04:27:29;97090.72;;;27.17;41.13
61035;BME280;46916;40.564;-7.958;2022-07-12T04:29:30;97082.13;;;27.15;40.87
61035;BME280;46916;40.564;-7.958;2022-07-12T04:31:31;97081.38;;;27.20;41.29
61035;BME280;46916;40.564;-7.958;2022-07-12T04:33:32;97081.84;;;27.16;40.86
61035;BME280;46916;40.564;-7.958;2022-07-12T04:35:32;97083.16;;;27.14;41.23
61035;BME280;46916;40.564;-7.958;2022-07-12T04:37:33;97094.47;;;27.16;41.26
61035;BME280;46916;40.564;-7.958;2022-07-12T04:39:33;97089.59;;;27.13;40.89
61035;BME280;46916;40.564;-7.958;2022-07-12T04:41:34;97084.78;;;27.15;41.38
61035;BME280;46916;40.564;-7.958;2022-07-12T04:43:35;97088.78;;;27.12;41.14
61035;BME280;46916;40.564;-7.958;2022-07-12T04:45:35;97091.22;;;27.14;41.24
61035;BME280;46916;40.564;-7.958;2022-07-12T04:47:37;97094.28;;;27.06;41.19
61035;BME280;46916;40.564;-7.958;2022-07-12T04:49:38;97094.78;;;27.03;41.46
61035;BME280;46916;40.564;-7.958;2022-07-12T04:51:39;97086.94;;;27.01;41.51
61035;BME280;46916;40.564;-7.958;2022-07-12T04:53:39;97090.53;;;27.07;41.73
61035;BME280;46916;40.564;-7.958;2022-07-12T04:55:40;97093.47;;;27.05;41.76
61035;BME280;46916;40.564;-7.958;2022-07-12T04:57:40;97091.03;;;27.04;41.34
61035;BME280;46916;40.564;-7.958;2022-07-12T04:59:41;97092.16;;;27.08;41.50
61035;BME280;46916;40.564;-7.958;2022-07-12T05:01:42;97094.03;;;27.07;41.56
61035;BME280;46916;40.564;-7.958;2022-07-12T05:03:43;97106.81;;;27.00;41.72
61035;BME280;46916;40.564;-7.958;2022-07-12T05:05:43;97111.28;;;26.95;41.63
61035;BME280;46916;40.564;-7.958;2022-07-12T05:07:44;97102.97;;;26.96;41.95
61035;BME280;46916;40.564;-7.958;2022-07-12T05:09:45;97109.00;;;26.86;42.25
61035;BME280;46916;40.564;-7.958;2022-07-12T05:11:46;97108.41;;;26.84;42.39
61035;BME280;46916;40.564;-7.958;2022-07-12T05:13:47;97111.81;;;26.80;42.50
61035;BME280;46916;40.564;-7.958;2022-07-12T05:15:48;97115.25;;;26.75;42.70
61035;BME280;46916;40.564;-7.958;2022-07-12T05:17:49;97115.16;;;26.70;42.56
61035;BME280;46916;40.564;-7.958;2022-07-12T05:19:49;97116.69;;;26.66;42.50
61035;BME280;46916;40.564;-7.958;2022-07-12T05:21:50;97124.63;;;26.61;41.95
61035;BME280;46916;40.564;-7.958;2022-07-12T05:23:51;97122.88;;;26.66;41.87
61035;BME280;46916;40.564;-7.958;2022-07-12T05:25:52;97123.69;;;26.67;42.03
61035;BME280;46916;40.564;-7.958;2022-07-12T05:27:53;97130.94;;;26.66;41.97
61035;BME280;46916;40.564;-7.958;2022-07-12T05:29:53;97125.78;;;26.65;41.66
61035;BME280;46916;40.564;-7.958;2022-07-12T05:31:57;97125.22;;;26.63;41.05
61035;BME280;46916;40.564;-7.958;2022-07-12T05:33:58;97126.84;;;26.64;40.96
61035;BME280;46916;40.564;-7.958;2022-07-12T05:35:59;97137.19;;;26.72;40.37
61035;BME280;46916;40.564;-7.958;2022-07-12T05:38:00;97135.91;;;26.75;40.43
61035;BME280;46916;40.564;-7.958;2022-07-12T05:40:01;97134.75;;;26.71;40.58
61035;BME280;46916;40.564;-7.958;2022-07-12T05:42:02;97141.75;;;26.72;40.26
61035;BME280;46916;40.564;-7.958;2022-07-12T05:44:03;97136.72;;;26.75;40.24
61035;BME280;46916;40.564;-7.958;2022-07-12T05:46:04;97135.66;;;26.76;39.97
61035;BME280;46916;40.564;-7.958;2022-07-12T05:48:05;97150.38;;;26.74;39.71
61035;BME280;46916;40.564;-7.958;2022-07-12T05:50:06;97144.63;;;26.82;39.67
61035;BME280;46916;40.564;-7.958;2022-07-12T05:52:07;97146.75;;;26.80;40.04
61035;BME280;46916;40.564;-7.958;2022-07-12T05:54:26;97144.97;;;26.85;39.50
61035;BME280;46916;40.564;-7.958;2022-07-12T05:56:27;97152.22;;;26.85;39.81
61035;BME280;46916;40.564;-7.958;2022-07-12T05:58:27;97148.97;;;26.83;39.42
61035;BME280;46916;40.564;-7.958;2022-07-12T06:00:28;97144.88;;;26.80;39.56
61035;BME280;46916;40.564;-7.958;2022-07-12T06:02:29;97148.84;;;26.78;39.70
61035;BME280;46916;40.564;-7.958;2022-07-12T06:04:29;97147.47;;;26.75;39.49
61035;BME280;46916;40.564;-7.958;2022-07-12T06:06:30;97152.69;;;26.82;39.03
61035;BME280;46916;40.564;-7.958;2022-07-12T06:08:31;97151.31;;;26.79;38.76
61035;BME280;46916;40.564;-7.958;2022-07-12T06:10:32;97152.94;;;26.80;38.63
61035;BME280;46916;40.564;-7.958;2022-07-12T06:12:33;97149.69;;;26.78;38.74
61035;BME280;46916;40.564;-7.958;2022-07-12T06:14:34;97151.88;;;26.81;38.32
61035;BME280;46916;40.564;-7.958;2022-07-12T06:16:36;97154.81;;;26.80;38.38
61035;BME280;46916;40.564;-7.958;2022-07-12T06:18:37;97151.31;;;26.79;38.34
61035;BME280;46916;40.564;-7.958;2022-07-12T06:20:38;97154.81;;;26.80;37.66
61035;BME280;46916;40.564;-7.958;2022-07-12T06:22:38;97156.31;;;26.87;37.64
61035;BME280;46916;40.564;-7.958;2022-07-12T06:24:39;97160.94;;;26.92;36.94
61035;BME280;46916;40.564;-7.958;2022-07-12T06:26:40;97165.13;;;27.00;36.36
61035;BME280;46916;40.564;-7.958;2022-07-12T06:28:40;97168.22;;;27.08;35.78
61035;BME280;46916;40.564;-7.958;2022-07-12T06:30:41;97161.34;;;27.12;36.06
61035;BME280;46916;40.564;-7.958;2022-07-12T06:32:46;97171.38;;;27.17;35.69
61035;BME280;46916;40.564;-7.958;2022-07-12T06:34:47;97186.94;;;27.15;35.64
61035;BME280;46916;40.564;-7.958;2022-07-12T06:36:48;97196.25;;;27.24;35.60
61035;BME280;46916;40.564;-7.958;2022-07-12T06:38:48;97181.81;;;27.30;35.48
61035;BME280;46916;40.564;-7.958;2022-07-12T06:40:49;97194.69;;;27.28;35.52
61035;BME280;46916;40.564;-7.958;2022-07-12T06:42:50;97178.91;;;27.32;34.80
61035;BME280;46916;40.564;-7.958;2022-07-12T06:44:51;97190.28;;;27.39;34.96
61035;BME280;46916;40.564;-7.958;2022-07-12T06:46:51;97196.59;;;27.45;34.41
61035;BME280;46916;40.564;-7.958;2022-07-12T06:48:52;97204.19;;;27.48;34.70
61035;BME280;46916;40.564;-7.958;2022-07-12T06:50:53;97210.25;;;27.43;35.15
61035;BME280;46916;40.564;-7.958;2022-07-12T06:52:53;97210.84;;;27.45;35.08
61035;BME280;46916;40.564;-7.958;2022-07-12T06:54:54;97217.03;;;27.46;35.08
61035;BME280;46916;40.564;-7.958;2022-07-12T06:56:54;97223.47;;;27.45;35.36
61035;BME280;46916;40.564;-7.958;2022-07-12T06:58:55;97222.91;;;27.42;35.55
61035;BME280;46916;40.564;-7.958;2022-07-12T07:00:56;97232.38;;;27.45;35.46
61035;BME280;46916;40.564;-7.958;2022-07-12T07:02:56;97236.69;;;27.46;35.54
61035;BME280;46916;40.564;-7.958;2022-07-12T07:04:57;97238.06;;;27.49;35.04
61035;BME280;46916;40.564;-7.958;2022-07-12T07:06:58;97244.59;;;27.53;34.61
61035;BME280;46916;40.564;-7.958;2022-07-12T07:08:58;97247.22;;;27.64;34.79
61035;BME280;46916;40.564;-7.958;2022-07-12T07:10:59;97249.38;;;27.79;34.06
61035;BME280;46916;40.564;-7.958;2022-07-12T07:13:00;97250.22;;;27.97;34.16
61035;BME280;46916;40.564;-7.958;2022-07-12T07:15:01;97252.38;;;28.17;33.39
61035;BME280;46916;40.564;-7.958;2022-07-12T07:17:02;97261.91;;;28.41;32.87
61035;BME280;46916;40.564;-7.958;2022-07-12T07:19:02;97262.44;;;28.60;32.48
61035;BME280;46916;40.564;-7.958;2022-07-12T07:21:03;97265.41;;;28.80;32.25
61035;BME280;46916;40.564;-7.958;2022-07-12T07:23:04;97271.50;;;28.93;32.07
61035;BME280;46916;40.564;-7.958;2022-07-12T07:25:05;97283.16;;;28.98;32.13
61035;BME280;46916;40.564;-7.958;2022-07-12T07:27:06;97284.38;;;29.07;32.19
61035;BME280;46916;40.564;-7.958;2022-07-12T07:29:08;97303.56;;;29.11;32.30
61035;BME280;46916;40.564;-7.958;2022-07-12T07:31:27;97302.00;;;29.15;31.23
61035;BME280;46916;40.564;-7.958;2022-07-12T07:33:27;97305.25;;;29.17;31.63
61035;BME280;46916;40.564;-7.958;2022-07-12T07:35:28;97308.75;;;29.18;31.73
61035;BME280;46916;40.564;-7.958;2022-07-12T07:37:30;97311.22;;;29.19;31.70
61035;BME280;46916;40.564;-7.958;2022-07-12T07:39:30;97319.38;;;29.24;32.02
61035;BME280;46916;40.564;-7.958;2022-07-12T07:41:31;97322.09;;;29.29;30.82
61035;BME280;46916;40.564;-7.958;2022-07-12T07:43:32;97323.22;;;29.33;31.22
61035;BME280;46916;40.564;-7.958;2022-07-12T07:45:34;97324.41;;;29.43;30.80
61035;BME280;46916;40.564;-7.958;2022-07-12T07:47:48;97333.03;;;29.40;31.38
61035;BME280;46916;40.564;-7.958;2022-07-12T07:49:49;97333.56;;;29.42;31.26
61035;BME280;46916;40.564;-7.958;2022-07-12T07:51:50;97339.56;;;29.44;31.42
61035;BME280;46916;40.564;-7.958;2022-07-12T07:53:51;97329.94;;;29.31;31.59
61035;BME280;46916;40.564;-7.958;2022-07-12T07:55:51;97324.69;;;29.19;31.63
61035;BME280;46916;40.564;-7.958;2022-07-12T07:57:52;97336.31;;;29.20;32.48
61035;BME280;46916;40.564;-7.958;2022-07-12T07:59:53;97335.53;;;29.24;32.11
61035;BME280;46916;40.564;-7.958;2022-07-12T08:01:53;97340.22;;;29.34;31.62
61035;BME280;46916;40.564;-7.958;2022-07-12T08:03:54;97344.00;;;29.33;31.48
61035;BME280;46916;40.564;-7.958;2022-07-12T08:05:54;97356.91;;;29.31;31.98
61035;BME280;46916;40.564;-7.958;2022-07-12T08:07:57;97353.22;;;29.37;31.85
61035;BME280;46916;40.564;-7.958;2022-07-12T08:09:58;97356.53;;;29.44;31.87
61035;BME280;46916;40.564;-7.958;2022-07-12T08:11:59;97358.78;;;29.52;31.93
61035;BME280;46916;40.564;-7.958;2022-07-12T08:14:02;97360.25;;;29.60;31.82
61035;BME280;46916;40.564;-7.958;2022-07-12T08:16:03;97367.06;;;29.68;31.44
61035;BME280;46916;40.564;-7.958;2022-07-12T08:18:04;97364.22;;;29.79;30.86
61035;BME280;46916;40.564;-7.958;2022-07-12T08:20:06;97362.66;;;29.83;30.76
61035;BME280;46916;40.564;-7.958;2022-07-12T08:22:07;97367.59;;;29.92;30.85
61035;BME280;46916;40.564;-7.958;2022-07-12T08:24:07;97367.88;;;29.95;30.51
61035;BME280;46916;40.564;-7.958;2022-07-12T08:26:08;97366.88;;;30.01;30.19
61035;BME280;46916;40.564;-7.958;2022-07-12T08:28:09;97370.94;;;30.04;29.90
61035;BME280;46916;40.564;-7.958;2022-07-12T08:30:10;97366.94;;;30.06;30.29
61035;BME280;46916;40.564;-7.958;2022-07-12T08:32:11;97378.03;;;30.10;30.05
61035;BME280;46916;40.564;-7.958;2022-07-12T08:34:12;97371.84;;;30.15;29.91
61035;BME280;46916;40.564;-7.958;2022-07-12T08:36:12;97370.03;;;30.20;29.91
61035;BME280;46916;40.564;-7.958;2022-07-12T08:38:13;97360.94;;;30.31;29.42
61035;BME280;46916;40.564;-7.958;2022-07-12T08:40:16;97377.50;;;30.40;29.37
61035;BME280;46916;40.564;-7.958;2022-07-12T08:42:17;97366.72;;;30.45;29.36
61035;BME280;46916;40.564;-7.958;2022-07-12T08:44:21;97361.38;;;30.50;28.95
61035;BME280;46916;40.564;-7.958;2022-07-12T08:46:22;97374.09;;;30.55;28.96
61035;BME280;46916;40.564;-7.958;2022-07-12T08:48:22;97368.72;;;30.60;29.28
61035;BME280;46916;40.564;-7.958;2022-07-12T08:50:23;97380.75;;;30.74;28.68
61035;BME280;46916;40.564;-7.958;2022-07-12T08:52:28;97375.91;;;30.81;28.83
61035;BME280;46916;40.564;-7.958;2022-07-12T08:54:38;97373.53;;;30.90;28.43
61035;BME280;46916;40.564;-7.958;2022-07-12T08:56:41;97372.22;;;30.98;28.27
61035;BME280;46916;40.564;-7.958;2022-07-12T08:58:42;97371.19;;;30.99;28.57
61035;BME280;46916;40.564;-7.958;2022-07-12T09:00:43;97368.44;;;30.94;28.79
61035;BME280;46916;40.564;-7.958;2022-07-12T09:04:45;97385.41;;;30.84;28.73
61035;BME280;46916;40.564;-7.958;2022-07-12T09:06:46;97375.41;;;30.84;28.39
61035;BME280;46916;40.564;-7.958;2022-07-12T09:08:49;97380.84;;;30.90;28.24
61035;BME280;46916;40.564;-7.958;2022-07-12T09:12:51;97383.59;;;30.95;28.14
61035;BME280;46916;40.564;-7.958;2022-07-12T09:14:56;97387.09;;;30.95;28.62
61035;BME280;46916;40.564;-7.958;2022-07-12T09:17:10;97383.91;;;31.03;28.28
61035;BME280;46916;40.564;-7.958;2022-07-12T09:19:17;97396.13;;;31.11;28.12
61035;BME280;46916;40.564;-7.958;2022-07-12T09:21:25;97395.63;;;31.19;28.07
61035;BME280;46916;40.564;-7.958;2022-07-12T09:23:26;97398.59;;;31.23;28.36
61035;BME280;46916;40.564;-7.958;2022-07-12T09:25:27;97390.75;;;31.21;28.03
61035;BME280;46916;40.564;-7.958;2022-07-12T09:27:28;97397.78;;;31.22;27.66
61035;BME280;46916;40.564;-7.958;2022-07-12T09:29:30;97392.13;;;31.24;27.65
61035;BME280;46916;40.564;-7.958;2022-07-12T09:31:43;97387.84;;;31.33;27.24
61035;BME280;46916;40.564;-7.958;2022-07-12T09:34:03;97391.94;;;31.36;28.03
61035;BME280;46916;40.564;-7.958;2022-07-12T09:36:26;97389.25;;;31.41;27.55
61035;BME280;46916;40.564;-7.958;2022-07-12T09:38:27;97387.06;;;31.43;27.33
61035;BME280;46916;40.564;-7.958;2022-07-12T09:40:28;97387.94;;;31.48;26.83
61035;BME280;46916;40.564;-7.958;2022-07-12T09:42:29;97391.16;;;31.50;27.29
61035;BME280;46916;40.564;-7.958;2022-07-12T09:44:30;97401.19;;;31.50;26.68
61035;BME280;46916;40.564;-7.958;2022-07-12T09:46:32;97393.88;;;31.55;27.40
61035;BME280;46916;40.564;-7.958;2022-07-12T09:48:33;97391.50;;;31.69;25.69
61035;BME280;46916;40.564;-7.958;2022-07-12T09:50:35;97387.72;;;31.75;25.63
61035;BME280;46916;40.564;-7.958;2022-07-12T09:52:37;97395.91;;;31.86;24.83
61035;BME280;46916;40.564;-7.958;2022-07-12T09:54:40;97390.50;;;31.86;24.59
61035;BME280;46916;40.564;-7.958;2022-07-12T09:56:43;97395.09;;;31.85;24.93
61035;BME280;46916;40.564;-7.958;2022-07-12T09:58:53;97398.34;;;31.87;24.31
61035;BME280;46916;40.564;-7.958;2022-07-12T10:00:55;97394.31;;;31.95;23.61
61035;BME280;46916;40.564;-7.958;2022-07-12T10:03:00;97407.31;;;32.03;24.21
61035;BME280;46916;40.564;-7.958;2022-07-12T10:05:04;97406.78;;;32.16;24.12
61035;BME280;46916;40.564;-7.958;2022-07-12T10:07:05;97401.66;;;32.20;23.32
61035;BME280;46916;40.564;-7.958;2022-07-12T10:09:07;97403.84;;;32.38;22.52
61035;BME280;46916;40.564;-7.958;2022-07-12T10:11:08;97400.31;;;32.53;23.18
61035;BME280;46916;40.564;-7.958;2022-07-12T10:13:12;97405.22;;;32.56;23.51
61035;BME280;46916;40.564;-7.958;2022-07-12T10:15:18;97409.81;;;32.55;23.84
61035;BME280;46916;40.564;-7.958;2022-07-12T10:17:23;97409.53;;;32.57;23.35
61035;BME280;46916;40.564;-7.958;2022-07-12T10:19:31;97420.38;;;32.57;23.28
61035;BME280;46916;40.564;-7.958;2022-07-12T10:21:38;97414.41;;;32.65;22.51
61035;BME280;46916;40.564;-7.958;2022-07-12T10:23:39;97420.66;;;32.71;22.54
61035;BME280;46916;40.564;-7.958;2022-07-12T10:25:40;97415.50;;;32.79;22.62
61035;BME280;46916;40.564;-7.958;2022-07-12T10:27:41;97423.63;;;32.85;23.03
61035;BME280;46916;40.564;-7.958;2022-07-12T10:29:46;97419.81;;;32.86;23.05
61035;BME280;46916;40.564;-7.958;2022-07-12T10:31:46;97423.66;;;32.95;22.90
61035;BME280;46916;40.564;-7.958;2022-07-12T10:33:47;97420.09;;;33.04;23.10
61035;BME280;46916;40.564;-7.958;2022-07-12T10:36:01;97422.53;;;33.11;23.32
61035;BME280;46916;40.564;-7.958;2022-07-12T10:42:16;97409.97;;;33.31;23.56
61035;BME280;46916;40.564;-7.958;2022-07-12T10:44:36;97416.75;;;33.33;23.69